This is the latest recevied weather packets stored in our database for station/object IU1OLT-5. If no packets are shown the sender has not sent any weather packets the latest 1 day(s).
| Time | Temp. | Humidity | Pressure | Rain* | Wind** | Luminosity | Snow |
|---|---|---|---|---|---|---|---|
| 1777988576 | 17.78° C | 86% | 1012.9 hPa | 0 mm | 2.68 m/s, 203° | 337 W/m² | - |
| 1777987676 | 16.67° C | 88% | 1012.8 hPa | 0 mm | 4.02 m/s, 211° | 410 W/m² | - |
| 1777986776 | 16.67° C | 88% | 1012.8 hPa | 0 mm | 3.13 m/s, 221° | 408 W/m² | - |
| 1777985876 | 17.78° C | 89% | 1013.1 hPa | 0 mm | 1.79 m/s, 169° | 302 W/m² | - |
| 1777984976 | 17.78° C | 87% | 1013 hPa | 0 mm | 1.79 m/s, 229° | 631 W/m² | - |
| 1777984076 | 17.22° C | 89% | 1013 hPa | 0 mm | 2.68 m/s, 264° | 481 W/m² | - |
| 1777983176 | 16.67° C | 89% | 1013 hPa | 0 mm | 4.02 m/s, 198° | 374 W/m² | - |
| 1777982275 | 17.78° C | 86% | 1012.9 hPa | 0 mm | 2.24 m/s, 267° | 642 W/m² | - |
| 1777981375 | 17.78° C | 88% | 1012.9 hPa | 0 mm | 3.13 m/s, 184° | 593 W/m² | - |
| 1777980475 | 17.22° C | 89% | 1012.9 hPa | 0 mm | 5.36 m/s, 179° | 438 W/m² | - |
| 1777979574 | 17.22° C | 89% | 1012.8 hPa | 0 mm | 4.92 m/s, 194° | 841 W/m² | - |
| 1777978674 | 16.11° C | 92% | 1012.8 hPa | 0 mm | 2.68 m/s, 218° | 625 W/m² | - |
| 1777977774 | 16.67° C | 92% | 1012.5 hPa | 0 mm | 0.89 m/s, 246° | 939 W/m² | - |
| 1777976873 | 17.22° C | 92% | 1012.6 hPa | 0 mm | 1.79 m/s, 203° | 240 W/m² | - |
| 1777975972 | 17.78° C | 87% | 1012.6 hPa | 0 mm | 0 m/s | 245 W/m² | - |
| 1777975072 | 16.11° C | 99% | 1012.7 hPa | 0 mm | 0.45 m/s, 264° | 275 W/m² | - |
| 1777974172 | 15° C | 99% | 1012.1 hPa | 0 mm | 0.89 m/s, 204° | 608 W/m² | - |
| 1777973272 | 13.89° C | 99% | 1012.3 hPa | 0 mm | 1.34 m/s, 350° | 297 W/m² | - |
| 1777972371 | 12.78° C | 99% | 1012.2 hPa | 0 mm | 1.34 m/s, 256° | 187 W/m² | - |
| 1777971471 | 12.78° C | 99% | 1012.3 hPa | 0 mm | 1.34 m/s, 49° | 158 W/m² | - |
| 1777970571 | 12.22° C | 99% | 1012.1 hPa | 0 mm | 1.34 m/s, 52° | 140 W/m² | - |
| 1777969670 | 12.22° C | 99% | 1012.1 hPa | 0 mm | 0.89 m/s, 38° | 88 W/m² | - |
| 1777968770 | 12.22° C | 99% | 1011.8 hPa | 0 mm | 0.89 m/s, 290° | 93 W/m² | - |
| 1777967870 | 11.67° C | 99% | 1011.9 hPa | 0 mm | 3.58 m/s, 68° | 87 W/m² | - |
| 1777966970 | 12.22° C | 99% | 1012.1 hPa | 0 mm | 2.68 m/s, 43° | 95 W/m² | - |
* Rain latest hour (hover to see other rain measurements)
** Current wind speed in m/s (hover to see current wind gust speed)